createdAt,value
2019-02-02T00:02:05.693Z,59.60
2019-02-02T00:05:00.520Z,59.70
2019-02-02T00:07:55.609Z,59.80
2019-02-02T00:10:50.060Z,59.80
2019-02-02T00:13:45.370Z,59.80
2019-02-02T00:16:40.108Z,59.90
2019-02-02T00:19:34.830Z,59.90
2019-02-02T00:22:29.735Z,59.80
2019-02-02T00:25:24.973Z,59.80
2019-02-02T00:28:19.842Z,59.80
2019-02-02T00:31:14.830Z,59.80
2019-02-02T00:34:09.841Z,59.80
2019-02-02T00:37:04.914Z,59.80
2019-02-02T00:39:59.711Z,60.00
2019-02-02T00:42:54.454Z,60.10
2019-02-02T00:45:48.800Z,60.20
2019-02-02T00:48:43.504Z,60.30
2019-02-02T00:51:38.163Z,60.40
2019-02-02T00:54:32.817Z,60.40
2019-02-02T00:57:27.288Z,60.60
2019-02-02T01:00:22.034Z,60.60
2019-02-02T01:03:16.837Z,60.70
2019-02-02T01:06:11.442Z,60.70
2019-02-02T01:09:06.878Z,60.90
2019-02-02T01:12:01.406Z,61.00
2019-02-02T01:14:56.088Z,61.20
2019-02-02T01:17:50.883Z,61.20
2019-02-02T01:20:45.479Z,61.30
2019-02-02T01:23:40.613Z,61.30
2019-02-02T01:26:35.408Z,61.30
2019-02-02T01:29:29.813Z,61.20
2019-02-02T01:32:24.409Z,61.20
2019-02-02T01:35:20.040Z,61.10
2019-02-02T01:38:14.729Z,61.10
2019-02-02T01:41:09.259Z,61.10
2019-02-02T01:44:04.047Z,61.10
2019-02-02T01:46:58.743Z,61.10
2019-02-02T01:49:53.207Z,61.10
2019-02-02T01:52:47.698Z,60.90
2019-02-02T01:55:42.639Z,60.90
2019-02-02T01:58:37.117Z,60.80
2019-02-02T02:01:31.857Z,60.80
2019-02-02T02:04:26.493Z,60.90
2019-02-02T02:07:21.249Z,60.70
2019-02-02T02:10:16.599Z,60.70
2019-02-02T02:13:11.634Z,60.70
2019-02-02T02:16:06.070Z,60.70
2019-02-02T02:19:00.822Z,60.70
2019-02-02T02:21:59.298Z,60.60
2019-02-02T02:24:54.212Z,60.50
2019-02-02T02:27:49.214Z,60.40
2019-02-02T02:30:47.118Z,60.30
2019-02-02T02:33:39.426Z,60.20
2019-02-02T02:36:33.888Z,60.30
2019-02-02T02:39:29.211Z,60.50
2019-02-02T02:42:24.178Z,60.40
2019-02-02T02:45:18.791Z,60.20
2019-02-02T02:48:17.123Z,60.10
2019-02-02T02:51:11.872Z,59.90
2019-02-02T02:54:10.371Z,59.80
2019-02-02T02:57:05.997Z,59.70
2019-02-02T03:00:00.473Z,59.70
2019-02-02T03:02:55.475Z,59.60
2019-02-02T03:05:50.168Z,59.60
2019-02-02T03:08:44.688Z,59.60
2019-02-02T03:11:40.080Z,59.40
2019-02-02T03:14:34.730Z,59.30
2019-02-02T03:17:29.304Z,59.00
2019-02-02T03:20:24.377Z,58.90
2019-02-02T03:23:22.239Z,58.70
2019-02-02T03:26:16.858Z,58.30
2019-02-02T03:29:11.628Z,58.10
2019-02-02T03:32:06.729Z,57.80
2019-02-02T03:35:01.236Z,57.50
2019-02-02T03:37:56.267Z,57.10
2019-02-02T03:40:50.752Z,56.90
2019-02-02T03:43:49.214Z,56.70
2019-02-02T03:46:44.359Z,56.50
2019-02-02T03:49:39.028Z,56.60
2019-02-02T03:52:33.527Z,56.60
2019-02-02T03:55:28.071Z,56.20
2019-02-02T03:58:22.826Z,56.10
2019-02-02T04:01:17.304Z,56.00
2019-02-02T04:04:11.665Z,55.50
2019-02-02T04:07:06.075Z,55.00
2019-02-02T04:10:00.931Z,54.50
2019-02-02T04:12:55.782Z,54.20
2019-02-02T04:15:50.873Z,53.80
2019-02-02T04:18:47.014Z,53.50
2019-02-02T04:21:42.351Z,53.30
2019-02-02T04:24:38.010Z,53.30
2019-02-02T04:27:33.343Z,53.00
2019-02-02T04:30:30.039Z,53.00
2019-02-02T04:33:24.683Z,52.90
2019-02-02T04:36:19.378Z,53.10
2019-02-02T04:39:14.147Z,53.10
2019-02-02T04:42:08.856Z,52.90
2019-02-02T04:45:04.300Z,52.80
2019-02-02T04:47:58.841Z,52.70
2019-02-02T04:50:53.735Z,52.50
2019-02-02T04:53:48.592Z,52.30
2019-02-02T04:56:45.987Z,52.10
2019-02-02T04:59:41.368Z,52.00
2019-02-02T05:02:39.931Z,51.80
2019-02-02T05:05:35.812Z,51.80
2019-02-02T05:08:30.679Z,51.80
2019-02-02T05:11:26.046Z,51.60
2019-02-02T05:14:23.973Z,51.50
2019-02-02T05:17:20.154Z,51.20
2019-02-02T05:20:18.880Z,51.00
2019-02-02T05:23:18.880Z,50.80
2019-02-02T05:26:15.902Z,50.80
2019-02-02T05:29:15.598Z,50.90
2019-02-02T05:32:17.599Z,50.90
2019-02-02T05:35:31.085Z,50.90
2019-02-02T05:48:44.471Z,50.50
2019-02-02T05:54:55.869Z,50.30
2019-02-02T05:57:59.169Z,50.30
2019-02-02T06:00:59.230Z,49.90
2019-02-02T06:03:56.328Z,49.90
2019-02-02T06:07:12.503Z,50.00
2019-02-02T06:10:23.178Z,49.80
2019-02-02T06:16:26.201Z,49.60
2019-02-02T06:22:45.588Z,49.00
2019-02-02T06:25:42.383Z,48.70
2019-02-02T06:28:38.357Z,48.60
2019-02-02T06:31:33.412Z,48.30
2019-02-02T06:34:38.533Z,48.30
2019-02-02T06:37:28.645Z,48.20
2019-02-02T06:40:30.622Z,48.00
2019-02-02T06:43:30.161Z,47.90
2019-02-02T06:46:23.031Z,47.20
2019-02-02T06:49:18.092Z,46.60
2019-02-02T06:52:16.357Z,46.00
2019-02-02T06:55:13.298Z,45.30
2019-02-02T06:58:08.820Z,45.20
2019-02-02T07:01:14.455Z,44.30
2019-02-02T07:10:36.383Z,45.20
2019-02-02T07:13:43.921Z,45.00
2019-02-02T07:20:03.885Z,43.80
2019-02-02T07:23:04.169Z,43.30
2019-02-02T07:26:40.866Z,42.90
2019-02-02T07:32:44.859Z,42.10
2019-02-02T07:35:53.963Z,41.70
2019-02-02T07:38:50.418Z,40.30
2019-02-02T07:41:48.551Z,40.30
2019-02-02T07:45:00.381Z,40.20
2019-02-02T07:48:02.462Z,40.20
2019-02-02T07:51:03.218Z,40.30
2019-02-02T07:54:14.278Z,40.20
2019-02-02T07:57:32.590Z,39.80
2019-02-02T08:00:47.347Z,39.80
2019-02-02T08:03:52.434Z,39.80
2019-02-02T08:06:51.102Z,38.80
2019-02-02T08:09:46.261Z,38.60
2019-02-02T08:12:42.805Z,38.60
2019-02-02T08:15:55.458Z,38.80
2019-02-02T08:18:48.700Z,38.80
2019-02-02T08:21:51.520Z,38.50
2019-02-02T08:24:47.667Z,38.40
2019-02-02T08:27:42.315Z,38.30
2019-02-02T08:30:38.062Z,38.10
2019-02-02T08:33:33.122Z,38.50
2019-02-02T08:36:33.784Z,38.60
2019-02-02T08:39:45.187Z,37.70
2019-02-02T08:42:44.053Z,36.50
2019-02-02T08:45:40.440Z,36.50
2019-02-02T08:48:38.782Z,37.20
2019-02-02T08:52:08.472Z,37.50
2019-02-02T08:55:16.968Z,37.50
2019-02-02T08:58:25.915Z,37.70
2019-02-02T09:01:27.414Z,37.70
2019-02-02T09:04:44.546Z,37.40
2019-02-02T09:07:38.322Z,37.00
2019-02-02T09:10:36.415Z,36.40
2019-02-02T09:13:32.603Z,36.40
2019-02-02T09:16:34.014Z,36.30
2019-02-02T09:19:29.732Z,36.20
2019-02-02T09:22:37.155Z,36.20
2019-02-02T09:25:34.208Z,35.90
2019-02-02T09:28:29.027Z,35.80
2019-02-02T09:31:24.002Z,35.10
2019-02-02T09:34:19.274Z,34.60
2019-02-02T09:37:15.308Z,34.20
2019-02-02T09:40:12.114Z,34.40
2019-02-02T09:43:08.387Z,34.50
2019-02-02T09:46:04.801Z,34.80
2019-02-02T09:49:03.981Z,34.50
2019-02-02T09:52:18.793Z,33.90
2019-02-02T09:55:16.386Z,33.50
2019-02-02T09:58:13.656Z,33.20
2019-02-02T10:01:37.286Z,33.10
2019-02-02T10:04:34.444Z,32.50
2019-02-02T10:07:29.170Z,32.10
2019-02-02T10:10:26.445Z,31.90
2019-02-02T10:13:21.729Z,31.60
2019-02-02T10:16:17.842Z,31.40
2019-02-02T10:19:14.598Z,31.40
2019-02-02T10:25:35.865Z,31.70
2019-02-02T10:28:31.497Z,31.60
2019-02-02T10:31:38.926Z,31.50
2019-02-02T10:34:24.872Z,31.40
2019-02-02T10:37:21.026Z,31.60
2019-02-02T10:40:17.055Z,31.60
2019-02-02T10:43:14.770Z,31.60
2019-02-02T10:46:10.800Z,32.00
2019-02-02T10:49:06.042Z,31.90
2019-02-02T10:52:01.555Z,31.60
2019-02-02T10:55:03.000Z,31.70
2019-02-02T10:58:01.978Z,31.60
2019-02-02T11:01:09.875Z,31.80
2019-02-02T11:04:35.851Z,32.40
2019-02-02T11:07:27.760Z,32.20
2019-02-02T11:10:29.926Z,32.20
2019-02-02T11:13:25.274Z,32.60
2019-02-02T11:16:22.857Z,32.70
2019-02-02T11:19:32.349Z,32.80
2019-02-02T11:22:29.203Z,33.10
2019-02-02T11:25:40.256Z,33.30
2019-02-02T11:28:45.325Z,33.30
2019-02-02T11:31:43.674Z,33.30
2019-02-02T11:34:37.317Z,33.30
2019-02-02T11:37:37.362Z,33.30
2019-02-02T11:40:47.010Z,33.40
2019-02-02T11:43:45.369Z,33.40
2019-02-02T11:46:48.878Z,33.50
2019-02-02T11:49:42.842Z,33.50
2019-02-02T11:52:38.306Z,33.50
2019-02-02T11:55:34.915Z,33.70
2019-02-02T11:58:30.187Z,33.70
2019-02-02T12:01:25.088Z,33.80
2019-02-02T12:04:20.526Z,33.90
2019-02-02T12:07:15.613Z,34.10
2019-02-02T12:10:12.348Z,34.40
2019-02-02T12:13:10.008Z,34.70
2019-02-02T12:16:05.639Z,34.70
2019-02-02T12:19:05.133Z,34.80
2019-02-02T12:22:00.471Z,35.10
2019-02-02T12:24:55.761Z,35.20
2019-02-02T12:27:50.913Z,35.10
2019-02-02T12:30:46.155Z,35.30
2019-02-02T12:33:40.788Z,35.70
2019-02-02T12:36:36.898Z,35.90
2019-02-02T12:39:34.913Z,36.00
2019-02-02T12:42:29.522Z,36.30
2019-02-02T12:45:27.151Z,36.50
2019-02-02T12:48:23.027Z,36.60
2019-02-02T12:51:18.854Z,36.70
2019-02-02T12:54:37.196Z,37.10
2019-02-02T12:57:45.908Z,37.50
2019-02-02T13:00:45.602Z,37.50
2019-02-02T13:03:45.000Z,37.40
2019-02-02T13:06:39.908Z,37.50
2019-02-02T13:09:37.283Z,37.70
2019-02-02T13:12:33.593Z,38.00
2019-02-02T13:15:29.403Z,38.10
2019-02-02T13:18:24.120Z,38.40
2019-02-02T13:21:18.927Z,38.50
2019-02-02T13:24:17.119Z,38.50
2019-02-02T13:27:12.360Z,38.50
2019-02-02T13:30:08.235Z,38.70
2019-02-02T13:33:03.510Z,38.70
2019-02-02T13:36:00.340Z,38.80
2019-02-02T13:39:03.562Z,38.90
2019-02-02T13:42:00.674Z,39.00
2019-02-02T13:45:17.483Z,39.10
2019-02-02T13:48:13.006Z,39.50
2019-02-02T13:51:08.080Z,39.80
2019-02-02T13:54:02.811Z,40.40
2019-02-02T13:57:00.893Z,40.50
2019-02-02T13:59:56.645Z,40.30
2019-02-02T14:03:04.579Z,40.20
2019-02-02T14:06:02.612Z,40.40
2019-02-02T14:08:57.841Z,40.60
2019-02-02T14:11:53.086Z,40.80
2019-02-02T14:14:56.331Z,40.90
2019-02-02T14:17:51.978Z,40.70
2019-02-02T14:20:56.884Z,40.60
2019-02-02T14:28:34.976Z,40.50
2019-02-02T14:31:30.481Z,40.70
2019-02-02T14:34:25.566Z,40.80
2019-02-02T14:37:22.335Z,41.10
2019-02-02T14:40:18.883Z,41.30
2019-02-02T14:43:14.023Z,41.40
2019-02-02T14:46:16.917Z,41.40
2019-02-02T14:49:17.199Z,41.40
2019-02-02T14:52:12.613Z,41.40
2019-02-02T14:55:07.987Z,41.40
2019-02-02T14:58:02.958Z,41.40
2019-02-02T15:00:58.324Z,41.50
2019-02-02T15:03:54.057Z,41.60
2019-02-02T15:06:49.032Z,41.80
2019-02-02T15:09:44.755Z,42.00
2019-02-02T15:12:40.008Z,42.00
2019-02-02T15:15:37.792Z,42.20
2019-02-02T15:18:36.188Z,42.20
2019-02-02T15:21:31.274Z,42.20
2019-02-02T15:24:26.352Z,42.20
2019-02-02T15:27:21.325Z,42.40
2019-02-02T15:30:18.859Z,42.40
2019-02-02T15:33:14.204Z,42.40
2019-02-02T15:36:09.536Z,42.30
2019-02-02T15:39:05.413Z,42.50
2019-02-02T15:42:00.681Z,42.50
2019-02-02T15:44:56.760Z,42.60
2019-02-02T15:47:52.047Z,42.50
2019-02-02T15:50:47.615Z,42.60
2019-02-02T15:53:42.528Z,42.80
2019-02-02T15:59:40.925Z,43.20
2019-02-02T16:02:35.872Z,43.50
2019-02-02T16:05:31.748Z,43.80
2019-02-02T16:08:30.573Z,44.00
2019-02-02T16:11:29.237Z,44.10
2019-02-02T16:14:22.371Z,44.40
2019-02-02T16:17:17.594Z,44.70
2019-02-02T16:20:16.099Z,45.10
2019-02-02T16:23:10.933Z,45.30
2019-02-02T16:26:05.985Z,45.30
2019-02-02T16:29:00.915Z,45.40
2019-02-02T16:31:57.380Z,45.40
2019-02-02T16:34:52.410Z,45.60
2019-02-02T16:37:47.161Z,45.70
2019-02-02T16:40:42.006Z,45.70
2019-02-02T16:43:36.822Z,46.00
2019-02-02T16:46:32.778Z,46.10
2019-02-02T16:49:27.717Z,46.20
2019-02-02T16:52:22.384Z,46.30
2019-02-02T16:55:17.471Z,46.40
2019-02-02T16:58:12.165Z,46.60
2019-02-02T17:01:07.247Z,46.70
2019-02-02T17:04:08.509Z,46.80
2019-02-02T17:06:57.995Z,47.00
2019-02-02T17:09:55.833Z,47.30
2019-02-02T17:12:50.830Z,47.60
2019-02-02T17:15:45.605Z,47.60
2019-02-02T17:18:41.391Z,47.70
2019-02-02T17:21:40.161Z,47.80
2019-02-02T17:24:38.226Z,47.90
2019-02-02T17:27:33.817Z,47.70
2019-02-02T17:30:29.449Z,47.90
2019-02-02T17:33:26.609Z,48.00
2019-02-02T17:36:19.656Z,48.00
2019-02-02T17:39:14.363Z,48.10
2019-02-02T17:42:10.801Z,48.20
2019-02-02T17:45:06.092Z,48.30
2019-02-02T17:48:00.756Z,48.40
2019-02-02T17:50:55.715Z,48.60
2019-02-02T17:53:50.567Z,48.80
2019-02-02T17:56:45.475Z,49.00
2019-02-02T17:59:40.719Z,49.10
2019-02-02T18:02:35.422Z,49.20
2019-02-02T18:05:30.275Z,49.30
2019-02-02T18:08:24.962Z,49.50
2019-02-02T18:11:19.810Z,49.50
2019-02-02T18:14:14.870Z,49.40
2019-02-02T18:17:09.712Z,49.80
2019-02-02T18:20:04.627Z,49.80
2019-02-02T18:22:59.184Z,49.80
2019-02-02T18:25:54.058Z,49.80
2019-02-02T18:28:48.756Z,49.90
2019-02-02T18:31:43.432Z,49.90
2019-02-02T18:34:38.023Z,50.00
2019-02-02T18:37:32.714Z,50.30
2019-02-02T18:40:27.957Z,50.60
2019-02-02T18:43:22.714Z,50.90
2019-02-02T18:46:17.423Z,51.20
2019-02-02T18:49:12.221Z,51.50
2019-02-02T18:52:06.643Z,51.60
2019-02-02T18:55:01.450Z,51.80
2019-02-02T18:57:56.063Z,52.10
2019-02-02T19:00:51.049Z,52.00
2019-02-02T19:03:45.690Z,52.10
2019-02-02T19:06:40.543Z,52.00
2019-02-02T19:09:35.114Z,52.00
2019-02-02T19:12:29.741Z,52.20
2019-02-02T19:15:24.590Z,52.30
2019-02-02T19:18:19.594Z,52.40
2019-02-02T19:21:14.143Z,52.50
2019-02-02T19:24:09.362Z,52.50
2019-02-02T19:27:04.202Z,52.50
2019-02-02T19:29:59.184Z,52.60
2019-02-02T19:32:54.174Z,52.50
2019-02-02T19:35:49.004Z,52.50
2019-02-02T19:38:43.799Z,52.70
2019-02-02T19:41:38.355Z,52.80
2019-02-02T19:47:47.819Z,53.00
2019-02-02T19:50:47.923Z,53.00
2019-02-02T19:53:43.078Z,53.10
2019-02-02T19:56:38.267Z,53.10
2019-02-02T19:59:33.261Z,53.10
2019-02-02T20:02:28.156Z,53.30
2019-02-02T20:05:28.762Z,53.30
2019-02-02T20:08:18.574Z,53.30
2019-02-02T20:11:13.285Z,53.30
2019-02-02T20:14:07.679Z,53.40
2019-02-02T20:17:02.354Z,53.50
2019-02-02T20:19:56.820Z,53.60
2019-02-02T20:22:51.551Z,53.60
2019-02-02T20:25:46.548Z,53.60
2019-02-02T20:28:41.159Z,53.50
2019-02-02T20:31:35.815Z,53.50
2019-02-02T20:34:30.562Z,53.50
2019-02-02T20:37:25.200Z,53.50
2019-02-02T20:40:24.793Z,53.70
2019-02-02T20:43:19.292Z,53.70
2019-02-02T20:46:14.216Z,53.60
2019-02-02T20:49:08.903Z,53.70
2019-02-02T20:52:03.617Z,53.80
2019-02-02T20:55:01.054Z,54.00
2019-02-02T20:58:06.721Z,54.10
2019-02-02T21:01:01.578Z,54.20
2019-02-02T21:03:56.650Z,54.20
2019-02-02T21:06:51.451Z,54.20
2019-02-02T21:09:46.288Z,54.40
2019-02-02T21:12:40.964Z,54.40
2019-02-02T21:15:35.827Z,54.50
2019-02-02T21:18:30.835Z,54.50
2019-02-02T21:21:34.123Z,54.50
2019-02-02T21:24:28.712Z,54.60
2019-02-02T21:27:23.992Z,54.60
2019-02-02T21:30:24.304Z,54.80
2019-02-02T21:33:20.742Z,54.90
2019-02-02T21:36:15.451Z,55.00
2019-02-02T21:39:12.631Z,55.20
2019-02-02T21:42:10.813Z,55.30
2019-02-02T21:45:05.399Z,55.30
2019-02-02T21:48:00.440Z,55.50
2019-02-02T21:50:56.113Z,55.50
2019-02-02T21:56:51.400Z,55.90
2019-02-02T21:59:46.603Z,55.90
2019-02-02T22:02:41.698Z,56.10
2019-02-02T22:05:36.426Z,56.20
2019-02-02T22:08:31.375Z,56.40
2019-02-02T22:11:26.034Z,56.50
2019-02-02T22:14:20.972Z,56.60
2019-02-02T22:17:15.742Z,56.70
2019-02-02T22:20:12.266Z,56.80
2019-02-02T22:23:07.246Z,56.90
2019-02-02T22:26:02.173Z,57.00
2019-02-02T22:28:57.950Z,57.20
2019-02-02T22:31:53.075Z,57.30
2019-02-02T22:34:47.976Z,57.40
2019-02-02T22:37:42.888Z,57.70
2019-02-02T22:40:38.068Z,57.90
2019-02-02T22:43:42.243Z,58.10
2019-02-02T22:46:46.377Z,58.50
2019-02-02T22:52:50.495Z,58.90
2019-02-02T22:55:54.279Z,59.00
2019-02-02T22:58:57.547Z,59.20
2019-02-02T23:01:59.937Z,59.30
2019-02-02T23:05:36.468Z,59.30
2019-02-02T23:08:56.989Z,59.40
2019-02-02T23:12:14.907Z,59.40
2019-02-02T23:15:37.931Z,59.50
2019-02-02T23:18:32.663Z,59.20
2019-02-02T23:21:28.153Z,59.80
2019-02-02T23:24:23.295Z,59.90
2019-02-02T23:27:18.211Z,60.00
2019-02-02T23:30:14.137Z,60.00
2019-02-02T23:33:08.943Z,59.90
2019-02-02T23:36:03.576Z,59.90
2019-02-02T23:38:58.531Z,59.90
2019-02-02T23:41:53.287Z,59.90
2019-02-02T23:48:08.365Z,59.90
2019-02-02T23:51:04.414Z,59.90
2019-02-02T23:54:07.572Z,60.00
2019-02-02T23:57:09.344Z,60.10
